sensor_id;sensor_type;location;lat;lon;timestamp;temperature;humidity
7814;DHT22;3952;48.364;16.022;2023-11-18T00:01:59;5.10;99.90
7814;DHT22;3952;48.364;16.022;2023-11-18T00:04:26;5.10;99.90
7814;DHT22;3952;48.364;16.022;2023-11-18T00:06:54;5.10;99.90
7814;DHT22;3952;48.364;16.022;2023-11-18T00:09:23;5.10;99.90
7814;DHT22;3952;48.364;16.022;2023-11-18T00:11:50;5.10;99.90
7814;DHT22;3952;48.364;16.022;2023-11-18T00:14:17;5.10;99.90
7814;DHT22;3952;48.364;16.022;2023-11-18T00:16:46;5.10;99.90
7814;DHT22;3952;48.364;16.022;2023-11-18T00:19:13;5.20;99.90
7814;DHT22;3952;48.364;16.022;2023-11-18T00:21:41;5.20;99.90
7814;DHT22;3952;48.364;16.022;2023-11-18T00:24:09;5.20;99.90
7814;DHT22;3952;48.364;16.022;2023-11-18T00:26:37;5.20;99.90
7814;DHT22;3952;48.364;16.022;2023-11-18T00:29:04;5.10;99.90
7814;DHT22;3952;48.364;16.022;2023-11-18T00:31:31;5.10;99.90
7814;DHT22;3952;48.364;16.022;2023-11-18T00:33:58;5.10;99.90
7814;DHT22;3952;48.364;16.022;2023-11-18T00:36:25;5.00;99.90
7814;DHT22;3952;48.364;16.022;2023-11-18T00:38:54;5.00;99.90
7814;DHT22;3952;48.364;16.022;2023-11-18T00:41:22;5.00;99.90
7814;DHT22;3952;48.364;16.022;2023-11-18T00:43:49;5.00;99.90
7814;DHT22;3952;48.364;16.022;2023-11-18T00:46:16;4.90;99.90
7814;DHT22;3952;48.364;16.022;2023-11-18T00:48:44;4.90;99.90
7814;DHT22;3952;48.364;16.022;2023-11-18T00:51:11;4.90;99.90
7814;DHT22;3952;48.364;16.022;2023-11-18T00:53:38;6.70;99.90
7814;DHT22;3952;48.364;16.022;2023-11-18T00:56:06;4.90;99.90
7814;DHT22;3952;48.364;16.022;2023-11-18T00:58:37;4.80;99.90
7814;DHT22;3952;48.364;16.022;2023-11-18T01:01:06;4.90;99.90
7814;DHT22;3952;48.364;16.022;2023-11-18T01:03:33;4.80;99.90
7814;DHT22;3952;48.364;16.022;2023-11-18T01:06:01;4.80;99.90
7814;DHT22;3952;48.364;16.022;2023-11-18T01:08:28;4.80;99.90
7814;DHT22;3952;48.364;16.022;2023-11-18T01:10:55;4.90;99.90
7814;DHT22;3952;48.364;16.022;2023-11-18T01:13:23;4.80;99.90
7814;DHT22;3952;48.364;16.022;2023-11-18T01:15:53;4.90;99.90
7814;DHT22;3952;48.364;16.022;2023-11-18T01:18:21;4.80;99.90
7814;DHT22;3952;48.364;16.022;2023-11-18T01:20:48;4.80;99.90
7814;DHT22;3952;48.364;16.022;2023-11-18T01:23:15;4.80;99.90
7814;DHT22;3952;48.364;16.022;2023-11-18T01:25:42;4.80;99.90
7814;DHT22;3952;48.364;16.022;2023-11-18T01:28:09;4.80;99.90
7814;DHT22;3952;48.364;16.022;2023-11-18T01:30:37;4.70;99.90
7814;DHT22;3952;48.364;16.022;2023-11-18T01:33:05;4.70;99.90
7814;DHT22;3952;48.364;16.022;2023-11-18T01:35:34;4.70;99.90
7814;DHT22;3952;48.364;16.022;2023-11-18T01:38:01;4.70;99.90
7814;DHT22;3952;48.364;16.022;2023-11-18T01:40:28;4.70;99.90
7814;DHT22;3952;48.364;16.022;2023-11-18T01:42:56;4.70;99.90
7814;DHT22;3952;48.364;16.022;2023-11-18T01:45:24;4.60;99.90
7814;DHT22;3952;48.364;16.022;2023-11-18T01:47:53;4.70;99.90
7814;DHT22;3952;48.364;16.022;2023-11-18T01:50:22;4.60;99.90
7814;DHT22;3952;48.364;16.022;2023-11-18T01:52:49;4.60;99.90
7814;DHT22;3952;48.364;16.022;2023-11-18T01:55:18;4.60;99.90
7814;DHT22;3952;48.364;16.022;2023-11-18T01:57:47;4.60;99.90
7814;DHT22;3952;48.364;16.022;2023-11-18T02:00:17;4.60;99.90
7814;DHT22;3952;48.364;16.022;2023-11-18T02:02:44;4.50;99.90
7814;DHT22;3952;48.364;16.022;2023-11-18T02:05:12;4.50;99.90
7814;DHT22;3952;48.364;16.022;2023-11-18T02:07:40;4.50;99.90
7814;DHT22;3952;48.364;16.022;2023-11-18T02:10:08;4.50;99.90
7814;DHT22;3952;48.364;16.022;2023-11-18T02:12:42;4.50;99.90
7814;DHT22;3952;48.364;16.022;2023-11-18T02:15:10;4.50;99.90
7814;DHT22;3952;48.364;16.022;2023-11-18T02:17:41;4.50;99.90
7814;DHT22;3952;48.364;16.022;2023-11-18T02:20:11;4.50;99.90
7814;DHT22;3952;48.364;16.022;2023-11-18T02:22:44;4.50;99.90
7814;DHT22;3952;48.364;16.022;2023-11-18T02:25:15;4.40;99.90
7814;DHT22;3952;48.364;16.022;2023-11-18T02:27:45;4.40;99.90
7814;DHT22;3952;48.364;16.022;2023-11-18T02:30:13;4.40;99.90
7814;DHT22;3952;48.364;16.022;2023-11-18T02:32:46;4.50;99.90
7814;DHT22;3952;48.364;16.022;2023-11-18T02:35:20;4.50;99.90
7814;DHT22;3952;48.364;16.022;2023-11-18T02:37:53;4.40;99.90
7814;DHT22;3952;48.364;16.022;2023-11-18T02:40:28;4.50;99.90
7814;DHT22;3952;48.364;16.022;2023-11-18T02:43:00;2.50;99.90
7814;DHT22;3952;48.364;16.022;2023-11-18T02:45:28;4.50;99.90
7814;DHT22;3952;48.364;16.022;2023-11-18T02:47:57;4.50;99.90
7814;DHT22;3952;48.364;16.022;2023-11-18T02:50:25;4.50;99.90
7814;DHT22;3952;48.364;16.022;2023-11-18T02:52:53;4.50;99.90
7814;DHT22;3952;48.364;16.022;2023-11-18T02:55:21;4.60;99.90
7814;DHT22;3952;48.364;16.022;2023-11-18T02:57:48;4.60;99.90
7814;DHT22;3952;48.364;16.022;2023-11-18T03:00:19;4.70;99.90
7814;DHT22;3952;48.364;16.022;2023-11-18T03:02:48;5.20;99.90
7814;DHT22;3952;48.364;16.022;2023-11-18T03:05:17;4.70;99.90
7814;DHT22;3952;48.364;16.022;2023-11-18T03:07:44;4.80;99.90
7814;DHT22;3952;48.364;16.022;2023-11-18T03:10:15;4.80;99.90
7814;DHT22;3952;48.364;16.022;2023-11-18T03:12:46;4.80;99.90
7814;DHT22;3952;48.364;16.022;2023-11-18T03:15:14;4.90;99.90
7814;DHT22;3952;48.364;16.022;2023-11-18T03:17:45;4.90;99.90
7814;DHT22;3952;48.364;16.022;2023-11-18T03:20:14;4.90;99.90
7814;DHT22;3952;48.364;16.022;2023-11-18T03:22:43;5.00;99.90
7814;DHT22;3952;48.364;16.022;2023-11-18T03:25:11;4.90;99.90
7814;DHT22;3952;48.364;16.022;2023-11-18T03:27:39;5.00;99.90
7814;DHT22;3952;48.364;16.022;2023-11-18T03:30:07;5.00;99.90
7814;DHT22;3952;48.364;16.022;2023-11-18T03:32:35;5.00;99.90
7814;DHT22;3952;48.364;16.022;2023-11-18T03:35:05;5.10;99.90
7814;DHT22;3952;48.364;16.022;2023-11-18T03:37:34;5.10;99.90
7814;DHT22;3952;48.364;16.022;2023-11-18T03:40:01;5.10;99.90
7814;DHT22;3952;48.364;16.022;2023-11-18T03:42:29;5.10;99.90
7814;DHT22;3952;48.364;16.022;2023-11-18T03:44:57;5.10;99.90
7814;DHT22;3952;48.364;16.022;2023-11-18T03:47:24;5.10;99.90
7814;DHT22;3952;48.364;16.022;2023-11-18T03:49:51;5.20;99.90
7814;DHT22;3952;48.364;16.022;2023-11-18T03:52:21;5.10;99.90
7814;DHT22;3952;48.364;16.022;2023-11-18T03:54:48;5.10;99.90
7814;DHT22;3952;48.364;16.022;2023-11-18T03:57:15;5.10;99.90
7814;DHT22;3952;48.364;16.022;2023-11-18T03:59:42;5.10;99.90
7814;DHT22;3952;48.364;16.022;2023-11-18T04:02:10;5.10;99.90
7814;DHT22;3952;48.364;16.022;2023-11-18T04:04:37;5.10;99.90
7814;DHT22;3952;48.364;16.022;2023-11-18T04:07:05;5.00;99.90
7814;DHT22;3952;48.364;16.022;2023-11-18T04:09:33;5.00;99.90
7814;DHT22;3952;48.364;16.022;2023-11-18T04:12:00;5.00;99.90
7814;DHT22;3952;48.364;16.022;2023-11-18T04:14:28;5.00;99.90
7814;DHT22;3952;48.364;16.022;2023-11-18T04:16:56;5.00;99.90
7814;DHT22;3952;48.364;16.022;2023-11-18T04:19:23;4.90;99.90
7814;DHT22;3952;48.364;16.022;2023-11-18T04:21:50;5.00;99.90
7814;DHT22;3952;48.364;16.022;2023-11-18T04:24:18;4.90;99.90
7814;DHT22;3952;48.364;16.022;2023-11-18T04:26:46;5.00;99.90
7814;DHT22;3952;48.364;16.022;2023-11-18T04:29:15;5.00;99.90
7814;DHT22;3952;48.364;16.022;2023-11-18T04:31:42;5.00;99.90
7814;DHT22;3952;48.364;16.022;2023-11-18T04:34:09;5.00;99.90
7814;DHT22;3952;48.364;16.022;2023-11-18T04:36:36;5.00;99.90
7814;DHT22;3952;48.364;16.022;2023-11-18T04:39:03;5.00;99.90
7814;DHT22;3952;48.364;16.022;2023-11-18T04:41:31;5.70;99.90
7814;DHT22;3952;48.364;16.022;2023-11-18T04:43:59;5.00;99.90
7814;DHT22;3952;48.364;16.022;2023-11-18T04:46:27;5.00;99.90
7814;DHT22;3952;48.364;16.022;2023-11-18T04:48:54;5.00;99.90
7814;DHT22;3952;48.364;16.022;2023-11-18T04:51:22;5.00;99.90
7814;DHT22;3952;48.364;16.022;2023-11-18T04:53:49;4.90;99.90
7814;DHT22;3952;48.364;16.022;2023-11-18T04:56:16;4.90;99.90
7814;DHT22;3952;48.364;16.022;2023-11-18T04:58:44;4.80;99.90
7814;DHT22;3952;48.364;16.022;2023-11-18T05:01:14;4.70;99.90
7814;DHT22;3952;48.364;16.022;2023-11-18T05:03:41;4.60;99.90
7814;DHT22;3952;48.364;16.022;2023-11-18T05:06:08;4.60;99.90
7814;DHT22;3952;48.364;16.022;2023-11-18T05:08:35;4.60;99.90
7814;DHT22;3952;48.364;16.022;2023-11-18T05:11:03;4.70;99.90
7814;DHT22;3952;48.364;16.022;2023-11-18T05:13:31;4.60;99.90
7814;DHT22;3952;48.364;16.022;2023-11-18T05:15:59;4.60;99.90
7814;DHT22;3952;48.364;16.022;2023-11-18T05:18:28;4.60;99.90
7814;DHT22;3952;48.364;16.022;2023-11-18T05:20:59;4.60;99.90
7814;DHT22;3952;48.364;16.022;2023-11-18T05:23:26;4.60;99.90
7814;DHT22;3952;48.364;16.022;2023-11-18T05:25:55;4.50;99.90
7814;DHT22;3952;48.364;16.022;2023-11-18T05:28:24;4.50;99.90
7814;DHT22;3952;48.364;16.022;2023-11-18T05:30:51;4.50;99.90
7814;DHT22;3952;48.364;16.022;2023-11-18T05:33:18;4.50;99.90
7814;DHT22;3952;48.364;16.022;2023-11-18T05:35:47;4.50;99.90
7814;DHT22;3952;48.364;16.022;2023-11-18T05:38:16;4.50;99.90
7814;DHT22;3952;48.364;16.022;2023-11-18T05:40:47;4.50;99.90
7814;DHT22;3952;48.364;16.022;2023-11-18T05:43:22;3.10;99.90
7814;DHT22;3952;48.364;16.022;2023-11-18T05:45:51;4.50;99.90
7814;DHT22;3952;48.364;16.022;2023-11-18T05:48:38;4.50;99.90
7814;DHT22;3952;48.364;16.022;2023-11-18T05:51:07;4.50;99.90
7814;DHT22;3952;48.364;16.022;2023-11-18T05:53:34;4.50;99.90
7814;DHT22;3952;48.364;16.022;2023-11-18T05:56:04;4.50;99.90
7814;DHT22;3952;48.364;16.022;2023-11-18T05:58:32;4.50;99.90
7814;DHT22;3952;48.364;16.022;2023-11-18T06:00:59;4.50;99.90
7814;DHT22;3952;48.364;16.022;2023-11-18T06:03:27;4.50;99.90
7814;DHT22;3952;48.364;16.022;2023-11-18T06:05:54;4.50;99.90
7814;DHT22;3952;48.364;16.022;2023-11-18T06:08:23;4.30;99.90
7814;DHT22;3952;48.364;16.022;2023-11-18T06:10:51;4.50;99.90
7814;DHT22;3952;48.364;16.022;2023-11-18T06:13:22;4.50;99.90
7814;DHT22;3952;48.364;16.022;2023-11-18T06:15:50;6.60;99.90
7814;DHT22;3952;48.364;16.022;2023-11-18T06:18:17;4.50;99.90
7814;DHT22;3952;48.364;16.022;2023-11-18T06:20:45;4.50;99.90
7814;DHT22;3952;48.364;16.022;2023-11-18T06:23:12;4.50;99.90
7814;DHT22;3952;48.364;16.022;2023-11-18T06:25:45;4.50;99.90
7814;DHT22;3952;48.364;16.022;2023-11-18T06:28:13;4.60;99.90
7814;DHT22;3952;48.364;16.022;2023-11-18T06:30:42;4.50;99.90
7814;DHT22;3952;48.364;16.022;2023-11-18T06:33:09;4.60;99.90
7814;DHT22;3952;48.364;16.022;2023-11-18T06:35:37;4.60;99.90
7814;DHT22;3952;48.364;16.022;2023-11-18T06:38:05;4.60;99.90
7814;DHT22;3952;48.364;16.022;2023-11-18T06:40:33;4.60;99.90
7814;DHT22;3952;48.364;16.022;2023-11-18T06:43:02;4.60;99.90
7814;DHT22;3952;48.364;16.022;2023-11-18T06:45:36;4.70;99.90
7814;DHT22;3952;48.364;16.022;2023-11-18T06:48:05;4.70;99.90
7814;DHT22;3952;48.364;16.022;2023-11-18T06:50:32;4.70;99.90
7814;DHT22;3952;48.364;16.022;2023-11-18T06:53:01;4.70;99.90
7814;DHT22;3952;48.364;16.022;2023-11-18T06:55:28;4.70;99.90
7814;DHT22;3952;48.364;16.022;2023-11-18T06:57:55;4.80;99.90
7814;DHT22;3952;48.364;16.022;2023-11-18T07:00:24;4.80;99.90
7814;DHT22;3952;48.364;16.022;2023-11-18T07:02:53;4.80;99.90
7814;DHT22;3952;48.364;16.022;2023-11-18T07:05:21;4.80;99.90
7814;DHT22;3952;48.364;16.022;2023-11-18T07:07:49;4.80;99.90
7814;DHT22;3952;48.364;16.022;2023-11-18T07:10:17;4.90;99.90
7814;DHT22;3952;48.364;16.022;2023-11-18T07:12:46;4.90;99.90
7814;DHT22;3952;48.364;16.022;2023-11-18T07:15:14;4.90;99.90
7814;DHT22;3952;48.364;16.022;2023-11-18T07:17:44;4.90;99.90
7814;DHT22;3952;48.364;16.022;2023-11-18T07:20:12;4.90;99.90
7814;DHT22;3952;48.364;16.022;2023-11-18T07:22:39;4.90;99.90
7814;DHT22;3952;48.364;16.022;2023-11-18T07:25:07;4.90;99.90
7814;DHT22;3952;48.364;16.022;2023-11-18T07:27:35;4.90;99.90
7814;DHT22;3952;48.364;16.022;2023-11-18T07:30:03;4.90;99.90
7814;DHT22;3952;48.364;16.022;2023-11-18T07:32:36;5.00;99.90
7814;DHT22;3952;48.364;16.022;2023-11-18T07:35:05;4.60;99.90
7814;DHT22;3952;48.364;16.022;2023-11-18T07:37:35;5.00;99.90
7814;DHT22;3952;48.364;16.022;2023-11-18T07:40:04;5.00;99.90
7814;DHT22;3952;48.364;16.022;2023-11-18T07:42:32;5.00;99.90
7814;DHT22;3952;48.364;16.022;2023-11-18T07:45:01;5.00;99.90
7814;DHT22;3952;48.364;16.022;2023-11-18T07:47:30;5.00;99.90
7814;DHT22;3952;48.364;16.022;2023-11-18T07:49:58;5.00;99.90
7814;DHT22;3952;48.364;16.022;2023-11-18T07:52:28;5.10;99.90
7814;DHT22;3952;48.364;16.022;2023-11-18T07:54:55;5.10;99.90
7814;DHT22;3952;48.364;16.022;2023-11-18T07:57:23;5.10;99.90
7814;DHT22;3952;48.364;16.022;2023-11-18T07:59:53;5.10;99.90
7814;DHT22;3952;48.364;16.022;2023-11-18T08:02:21;5.10;99.90
7814;DHT22;3952;48.364;16.022;2023-11-18T08:04:48;5.20;99.90
7814;DHT22;3952;48.364;16.022;2023-11-18T08:07:15;5.20;99.90
7814;DHT22;3952;48.364;16.022;2023-11-18T08:09:46;5.30;99.90
7814;DHT22;3952;48.364;16.022;2023-11-18T08:12:13;5.30;99.90
7814;DHT22;3952;48.364;16.022;2023-11-18T08:14:42;5.30;99.90
7814;DHT22;3952;48.364;16.022;2023-11-18T08:17:09;5.40;99.90
7814;DHT22;3952;48.364;16.022;2023-11-18T08:19:36;5.40;99.90
7814;DHT22;3952;48.364;16.022;2023-11-18T08:22:03;5.40;99.90
7814;DHT22;3952;48.364;16.022;2023-11-18T08:24:31;5.50;99.90
7814;DHT22;3952;48.364;16.022;2023-11-18T08:27:00;5.50;99.90
7814;DHT22;3952;48.364;16.022;2023-11-18T08:29:29;5.60;99.90
7814;DHT22;3952;48.364;16.022;2023-11-18T08:31:57;5.60;99.90
7814;DHT22;3952;48.364;16.022;2023-11-18T08:34:25;5.60;99.90
7814;DHT22;3952;48.364;16.022;2023-11-18T08:36:52;5.00;99.90
7814;DHT22;3952;48.364;16.022;2023-11-18T08:39:19;5.70;99.90
7814;DHT22;3952;48.364;16.022;2023-11-18T08:41:51;5.70;99.90
7814;DHT22;3952;48.364;16.022;2023-11-18T08:44:20;5.80;99.90
7814;DHT22;3952;48.364;16.022;2023-11-18T08:46:47;5.80;99.90
7814;DHT22;3952;48.364;16.022;2023-11-18T08:49:14;5.80;99.90
7814;DHT22;3952;48.364;16.022;2023-11-18T08:51:42;5.90;99.90
7814;DHT22;3952;48.364;16.022;2023-11-18T08:54:10;5.90;99.90
7814;DHT22;3952;48.364;16.022;2023-11-18T08:56:48;5.90;99.90
7814;DHT22;3952;48.364;16.022;2023-11-18T08:59:19;6.00;99.90
7814;DHT22;3952;48.364;16.022;2023-11-18T09:01:51;6.00;99.90
7814;DHT22;3952;48.364;16.022;2023-11-18T09:04:22;6.10;99.90
7814;DHT22;3952;48.364;16.022;2023-11-18T09:06:49;6.10;99.90
7814;DHT22;3952;48.364;16.022;2023-11-18T09:09:19;6.20;99.90
7814;DHT22;3952;48.364;16.022;2023-11-18T09:11:53;6.20;99.90
7814;DHT22;3952;48.364;16.022;2023-11-18T09:14:23;6.30;99.90
7814;DHT22;3952;48.364;16.022;2023-11-18T09:16:51;6.30;99.90
7814;DHT22;3952;48.364;16.022;2023-11-18T09:19:20;6.30;99.90
7814;DHT22;3952;48.364;16.022;2023-11-18T09:21:48;6.40;99.90
7814;DHT22;3952;48.364;16.022;2023-11-18T09:24:17;6.40;99.90
7814;DHT22;3952;48.364;16.022;2023-11-18T09:26:45;6.40;99.90
7814;DHT22;3952;48.364;16.022;2023-11-18T09:29:16;6.40;99.90
7814;DHT22;3952;48.364;16.022;2023-11-18T09:31:46;6.50;99.90
7814;DHT22;3952;48.364;16.022;2023-11-18T09:34:15;6.50;99.90
7814;DHT22;3952;48.364;16.022;2023-11-18T09:36:43;6.50;99.90
7814;DHT22;3952;48.364;16.022;2023-11-18T09:39:10;6.50;99.90
7814;DHT22;3952;48.364;16.022;2023-11-18T09:41:54;6.50;99.90
7814;DHT22;3952;48.364;16.022;2023-11-18T09:44:22;6.50;99.90
7814;DHT22;3952;48.364;16.022;2023-11-18T09:46:55;6.50;99.90
7814;DHT22;3952;48.364;16.022;2023-11-18T09:49:32;6.60;99.90
7814;DHT22;3952;48.364;16.022;2023-11-18T09:52:06;6.50;99.90
7814;DHT22;3952;48.364;16.022;2023-11-18T09:54:39;6.60;99.90
7814;DHT22;3952;48.364;16.022;2023-11-18T09:57:14;6.60;99.90
7814;DHT22;3952;48.364;16.022;2023-11-18T09:59:51;6.60;99.90
7814;DHT22;3952;48.364;16.022;2023-11-18T10:02:25;6.60;99.90
7814;DHT22;3952;48.364;16.022;2023-11-18T10:04:53;6.60;99.90
7814;DHT22;3952;48.364;16.022;2023-11-18T10:07:24;8.40;99.90
7814;DHT22;3952;48.364;16.022;2023-11-18T10:09:54;6.60;99.90
7814;DHT22;3952;48.364;16.022;2023-11-18T10:12:23;6.60;99.90
7814;DHT22;3952;48.364;16.022;2023-11-18T10:14:52;8.30;99.90
7814;DHT22;3952;48.364;16.022;2023-11-18T10:17:24;6.70;99.90
7814;DHT22;3952;48.364;16.022;2023-11-18T10:19:53;6.70;99.90
7814;DHT22;3952;48.364;16.022;2023-11-18T10:22:23;6.70;99.90
7814;DHT22;3952;48.364;16.022;2023-11-18T10:24:53;6.70;99.90
7814;DHT22;3952;48.364;16.022;2023-11-18T10:27:23;6.70;99.90
7814;DHT22;3952;48.364;16.022;2023-11-18T10:29:54;6.70;99.90
7814;DHT22;3952;48.364;16.022;2023-11-18T10:32:22;6.80;99.90
7814;DHT22;3952;48.364;16.022;2023-11-18T10:34:55;6.80;99.90
7814;DHT22;3952;48.364;16.022;2023-11-18T10:37:23;6.80;99.90
7814;DHT22;3952;48.364;16.022;2023-11-18T10:39:50;6.80;99.90
7814;DHT22;3952;48.364;16.022;2023-11-18T10:42:18;6.80;99.90
7814;DHT22;3952;48.364;16.022;2023-11-18T10:44:54;6.80;99.90
7814;DHT22;3952;48.364;16.022;2023-11-18T10:47:24;6.90;99.90
7814;DHT22;3952;48.364;16.022;2023-11-18T10:49:54;6.90;99.90
7814;DHT22;3952;48.364;16.022;2023-11-18T10:52:22;6.90;99.90
7814;DHT22;3952;48.364;16.022;2023-11-18T10:54:51;6.90;99.90
7814;DHT22;3952;48.364;16.022;2023-11-18T10:57:20;6.90;99.90
7814;DHT22;3952;48.364;16.022;2023-11-18T11:00:00;7.00;99.90
7814;DHT22;3952;48.364;16.022;2023-11-18T11:02:30;7.00;99.90
7814;DHT22;3952;48.364;16.022;2023-11-18T11:05:05;7.00;99.90
7814;DHT22;3952;48.364;16.022;2023-11-18T11:07:33;7.10;99.90
7814;DHT22;3952;48.364;16.022;2023-11-18T11:10:00;7.20;99.90
7814;DHT22;3952;48.364;16.022;2023-11-18T11:12:33;7.20;99.90
7814;DHT22;3952;48.364;16.022;2023-11-18T11:15:08;7.30;99.90
7814;DHT22;3952;48.364;16.022;2023-11-18T11:17:51;7.30;99.90
7814;DHT22;3952;48.364;16.022;2023-11-18T11:20:23;7.30;99.90
7814;DHT22;3952;48.364;16.022;2023-11-18T11:23:04;7.30;99.90
7814;DHT22;3952;48.364;16.022;2023-11-18T11:25:41;7.30;99.90
7814;DHT22;3952;48.364;16.022;2023-11-18T11:28:14;7.40;99.90
7814;DHT22;3952;48.364;16.022;2023-11-18T11:30:45;7.40;99.90
7814;DHT22;3952;48.364;16.022;2023-11-18T11:33:23;7.40;99.90
7814;DHT22;3952;48.364;16.022;2023-11-18T11:35:56;7.40;99.90
7814;DHT22;3952;48.364;16.022;2023-11-18T11:38:24;7.40;99.90
7814;DHT22;3952;48.364;16.022;2023-11-18T11:40:55;7.40;99.90
7814;DHT22;3952;48.364;16.022;2023-11-18T11:43:24;7.40;99.90
7814;DHT22;3952;48.364;16.022;2023-11-18T11:45:54;7.40;99.90
7814;DHT22;3952;48.364;16.022;2023-11-18T11:48:23;7.40;99.90
7814;DHT22;3952;48.364;16.022;2023-11-18T11:51:05;7.40;99.90
7814;DHT22;3952;48.364;16.022;2023-11-18T11:53:42;7.50;99.90
7814;DHT22;3952;48.364;16.022;2023-11-18T11:56:12;7.50;99.90
7814;DHT22;3952;48.364;16.022;2023-11-18T11:58:43;7.50;99.90
7814;DHT22;3952;48.364;16.022;2023-11-18T12:01:18;7.50;99.90
7814;DHT22;3952;48.364;16.022;2023-11-18T12:03:50;7.50;99.90
7814;DHT22;3952;48.364;16.022;2023-11-18T12:06:26;7.50;99.90
7814;DHT22;3952;48.364;16.022;2023-11-18T12:08:54;7.50;99.90
7814;DHT22;3952;48.364;16.022;2023-11-18T12:11:21;7.50;99.90
7814;DHT22;3952;48.364;16.022;2023-11-18T12:14:02;7.40;99.90
7814;DHT22;3952;48.364;16.022;2023-11-18T12:16:57;7.50;99.90
7814;DHT22;3952;48.364;16.022;2023-11-18T12:19:29;7.40;99.90
7814;DHT22;3952;48.364;16.022;2023-11-18T12:21:59;7.40;99.90
7814;DHT22;3952;48.364;16.022;2023-11-18T12:24:27;7.40;99.90
7814;DHT22;3952;48.364;16.022;2023-11-18T12:26:59;7.40;99.90
7814;DHT22;3952;48.364;16.022;2023-11-18T12:29:32;7.40;99.90
7814;DHT22;3952;48.364;16.022;2023-11-18T12:32:00;7.50;99.90
7814;DHT22;3952;48.364;16.022;2023-11-18T12:34:49;7.50;99.90
7814;DHT22;3952;48.364;16.022;2023-11-18T12:41:00;7.40;99.90
7814;DHT22;3952;48.364;16.022;2023-11-18T12:43:46;7.40;99.90
7814;DHT22;3952;48.364;16.022;2023-11-18T12:46:47;7.40;99.90
7814;DHT22;3952;48.364;16.022;2023-11-18T12:49:16;7.30;99.90
7814;DHT22;3952;48.364;16.022;2023-11-18T12:51:46;7.30;99.90
7814;DHT22;3952;48.364;16.022;2023-11-18T12:54:14;7.30;99.90
7814;DHT22;3952;48.364;16.022;2023-11-18T12:56:44;7.30;99.90
7814;DHT22;3952;48.364;16.022;2023-11-18T12:59:14;7.30;99.90
7814;DHT22;3952;48.364;16.022;2023-11-18T13:01:44;7.30;99.90
7814;DHT22;3952;48.364;16.022;2023-11-18T13:04:17;7.30;99.90
7814;DHT22;3952;48.364;16.022;2023-11-18T13:06:47;8.30;99.90
7814;DHT22;3952;48.364;16.022;2023-11-18T13:09:17;7.30;99.90
7814;DHT22;3952;48.364;16.022;2023-11-18T13:11:54;7.30;99.90
7814;DHT22;3952;48.364;16.022;2023-11-18T13:14:24;7.20;99.90
7814;DHT22;3952;48.364;16.022;2023-11-18T13:16:56;7.20;99.90
7814;DHT22;3952;48.364;16.022;2023-11-18T13:19:24;7.20;99.90
7814;DHT22;3952;48.364;16.022;2023-11-18T13:21:55;7.20;99.90
7814;DHT22;3952;48.364;16.022;2023-11-18T13:24:23;7.10;99.90
7814;DHT22;3952;48.364;16.022;2023-11-18T13:26:50;7.20;99.90
7814;DHT22;3952;48.364;16.022;2023-11-18T13:29:19;7.20;99.90
7814;DHT22;3952;48.364;16.022;2023-11-18T13:31:47;9.10;99.90
7814;DHT22;3952;48.364;16.022;2023-11-18T13:34:14;7.10;99.90
7814;DHT22;3952;48.364;16.022;2023-11-18T13:36:42;7.10;99.90
7814;DHT22;3952;48.364;16.022;2023-11-18T13:39:16;7.10;99.90
7814;DHT22;3952;48.364;16.022;2023-11-18T13:41:43;7.10;99.90
7814;DHT22;3952;48.364;16.022;2023-11-18T13:44:11;7.10;99.90
7814;DHT22;3952;48.364;16.022;2023-11-18T13:46:41;7.10;99.90
7814;DHT22;3952;48.364;16.022;2023-11-18T13:49:09;7.10;99.90
7814;DHT22;3952;48.364;16.022;2023-11-18T13:51:37;7.10;99.90
7814;DHT22;3952;48.364;16.022;2023-11-18T13:54:05;7.10;99.90
7814;DHT22;3952;48.364;16.022;2023-11-18T13:56:33;7.00;99.90
7814;DHT22;3952;48.364;16.022;2023-11-18T13:59:00;7.00;99.90
7814;DHT22;3952;48.364;16.022;2023-11-18T14:01:27;7.00;99.90
7814;DHT22;3952;48.364;16.022;2023-11-18T14:03:56;7.00;99.90
7814;DHT22;3952;48.364;16.022;2023-11-18T14:06:27;6.90;99.90
7814;DHT22;3952;48.364;16.022;2023-11-18T14:08:55;6.90;99.90
7814;DHT22;3952;48.364;16.022;2023-11-18T14:11:22;6.80;99.90
7814;DHT22;3952;48.364;16.022;2023-11-18T14:13:50;6.80;99.90
7814;DHT22;3952;48.364;16.022;2023-11-18T14:16:19;6.80;99.90
7814;DHT22;3952;48.364;16.022;2023-11-18T14:18:49;6.90;99.90
7814;DHT22;3952;48.364;16.022;2023-11-18T14:21:18;6.80;99.90
7814;DHT22;3952;48.364;16.022;2023-11-18T14:23:46;6.90;99.90
7814;DHT22;3952;48.364;16.022;2023-11-18T14:26:13;6.90;99.90
7814;DHT22;3952;48.364;16.022;2023-11-18T14:28:40;6.90;99.90
7814;DHT22;3952;48.364;16.022;2023-11-18T14:31:08;6.90;99.90
7814;DHT22;3952;48.364;16.022;2023-11-18T14:33:36;6.90;99.90
7814;DHT22;3952;48.364;16.022;2023-11-18T14:36:04;6.80;99.90
7814;DHT22;3952;48.364;16.022;2023-11-18T14:38:34;6.70;99.90
7814;DHT22;3952;48.364;16.022;2023-11-18T14:41:03;6.70;99.90
7814;DHT22;3952;48.364;16.022;2023-11-18T14:43:30;6.70;99.90
7814;DHT22;3952;48.364;16.022;2023-11-18T14:45:58;6.70;99.90
7814;DHT22;3952;48.364;16.022;2023-11-18T14:48:25;6.70;99.90
7814;DHT22;3952;48.364;16.022;2023-11-18T14:50:52;6.80;99.90
7814;DHT22;3952;48.364;16.022;2023-11-18T14:53:22;6.70;99.90
7814;DHT22;3952;48.364;16.022;2023-11-18T14:55:52;6.70;99.90
7814;DHT22;3952;48.364;16.022;2023-11-18T14:58:19;6.70;99.90
7814;DHT22;3952;48.364;16.022;2023-11-18T15:00:46;6.70;99.90
7814;DHT22;3952;48.364;16.022;2023-11-18T15:03:14;6.70;99.90
7814;DHT22;3952;48.364;16.022;2023-11-18T15:05:41;6.60;99.90
7814;DHT22;3952;48.364;16.022;2023-11-18T15:08:09;6.60;99.90
7814;DHT22;3952;48.364;16.022;2023-11-18T15:10:40;4.50;99.90
7814;DHT22;3952;48.364;16.022;2023-11-18T15:13:12;6.50;99.90
7814;DHT22;3952;48.364;16.022;2023-11-18T15:15:41;6.50;99.90
7814;DHT22;3952;48.364;16.022;2023-11-18T15:18:09;6.60;99.90
7814;DHT22;3952;48.364;16.022;2023-11-18T15:20:40;6.60;99.90
7814;DHT22;3952;48.364;16.022;2023-11-18T15:23:08;6.60;99.90
7814;DHT22;3952;48.364;16.022;2023-11-18T15:25:36;6.60;99.90
7814;DHT22;3952;48.364;16.022;2023-11-18T15:28:04;6.60;99.90
7814;DHT22;3952;48.364;16.022;2023-11-18T15:30:37;6.60;99.90
7814;DHT22;3952;48.364;16.022;2023-11-18T15:33:05;6.70;99.90
7814;DHT22;3952;48.364;16.022;2023-11-18T15:35:34;6.70;99.90
7814;DHT22;3952;48.364;16.022;2023-11-18T15:38:04;6.70;99.90
7814;DHT22;3952;48.364;16.022;2023-11-18T15:40:34;6.70;99.90
7814;DHT22;3952;48.364;16.022;2023-11-18T15:43:03;6.70;99.90
7814;DHT22;3952;48.364;16.022;2023-11-18T15:45:32;6.70;99.90
7814;DHT22;3952;48.364;16.022;2023-11-18T15:48:01;6.70;99.90
7814;DHT22;3952;48.364;16.022;2023-11-18T15:50:31;6.70;99.90
7814;DHT22;3952;48.364;16.022;2023-11-18T15:53:03;6.60;99.90
7814;DHT22;3952;48.364;16.022;2023-11-18T15:55:31;6.60;99.90
7814;DHT22;3952;48.364;16.022;2023-11-18T15:58:02;6.60;99.90
7814;DHT22;3952;48.364;16.022;2023-11-18T16:00:29;6.60;99.90
7814;DHT22;3952;48.364;16.022;2023-11-18T16:02:57;6.60;99.90
7814;DHT22;3952;48.364;16.022;2023-11-18T16:05:28;6.50;99.90
7814;DHT22;3952;48.364;16.022;2023-11-18T16:07:59;6.50;99.90
7814;DHT22;3952;48.364;16.022;2023-11-18T16:10:27;6.40;99.90
7814;DHT22;3952;48.364;16.022;2023-11-18T16:12:55;6.40;99.90
7814;DHT22;3952;48.364;16.022;2023-11-18T16:15:24;6.40;99.90
7814;DHT22;3952;48.364;16.022;2023-11-18T16:17:52;6.30;99.90
7814;DHT22;3952;48.364;16.022;2023-11-18T16:20:21;6.30;99.90